Time;durP1;ratioP1;P1;durP2;ratioP2;P2;SDS_P1;SDS_P2;PMS_P1;PMS_P2;Temp;Humidity;BMP_temperature;BMP_pressure;BME280_temperature;BME280_humidity;BME280_pressure;Samples;Min_cycle;Max_cycle;Signal;HPM_P1;HPM_P2
2021/08/30 00:00:06;;;;;;;22.10;13.48;;;;;;;24.37;100.00;99819.23;1784386;79;21624;-58
2021/08/30 00:02:33;;;;;;;21.33;13.65;;;;;;;24.31;100.00;99817.52;1790497;79;21007;-58
2021/08/30 00:05:18;;;;;;;22.30;13.58;;;;;;;24.31;100.00;99816.64;1778492;79;21092;-59
2021/08/30 00:07:51;;;;;;;25.52;13.58;;;;;;;24.29;100.00;99820.94;1783864;79;21538;-60
2021/08/30 00:10:18;;;;;;;21.55;13.35;;;;;;;24.28;100.00;99819.22;1784294;79;20965;-59
2021/08/30 00:12:54;;;;;;;24.92;13.55;;;;;;;24.26;100.00;99814.92;1773671;79;21048;-59
2021/08/30 00:15:34;;;;;;;29.70;13.70;;;;;;;24.26;100.00;99822.64;1784288;79;21060;-59
2021/08/30 00:18:01;;;;;;;22.98;12.80;;;;;;;24.27;100.00;99817.50;1788329;79;21040;-60
2021/08/30 00:20:32;;;;;;;19.75;13.38;;;;;;;24.29;100.00;99818.20;1794408;79;21570;-60
2021/08/30 00:23:01;;;;;;;24.80;14.18;;;;;;;24.28;100.00;99816.48;1786567;79;21033;-58
2021/08/30 00:25:28;;;;;;;24.32;14.38;;;;;;;24.21;100.00;99812.70;1774891;79;21029;-58
2021/08/30 00:27:57;;;;;;;25.15;13.18;;;;;;;24.17;100.00;99810.80;1782154;79;20965;-60
2021/08/30 00:30:24;;;;;;;23.00;13.55;;;;;;;24.17;100.00;99815.41;1782374;79;21073;-60
2021/08/30 00:32:55;;;;;;;25.45;13.32;;;;;;;24.20;100.00;99810.95;1773408;79;21599;-60
2021/08/30 00:37:55;;;;;;;23.40;12.75;;;;;;;24.27;100.00;99813.89;1777102;79;21509;-60
2021/08/30 00:40:23;;;;;;;25.00;12.47;;;;;;;24.27;100.00;99816.63;1770726;79;20993;-60
2021/08/30 00:42:52;;;;;;;23.07;13.20;;;;;;;24.28;100.00;99821.95;1787930;79;21047;-60
2021/08/30 00:53:02;;;;;;;27.37;12.28;;;;;;;24.39;100.00;99817.18;1778336;79;20971;-60
2021/08/30 00:58:03;;;;;;;22.37;12.40;;;;;;;24.39;100.00;99809.84;1776982;79;21895;-58
2021/08/30 01:00:41;;;;;;;29.37;13.05;;;;;;;24.39;100.00;99810.33;1740229;79;21750;-60
2021/08/30 01:03:08;;;;;;;26.12;12.55;;;;;;;24.37;100.00;99811.02;1777395;79;21033;-60
2021/08/30 01:05:36;;;;;;;25.85;12.78;;;;;;;24.34;100.00;99808.62;1780103;79;21078;-60
2021/08/30 01:15:43;;;;;;;27.67;12.28;;;;;;;24.22;100.00;99815.78;1771839;79;21502;-60
2021/08/30 01:18:18;;;;;;;24.52;12.37;;;;;;;24.16;100.00;99818.67;1776843;79;21011;-60
2021/08/30 01:21:15;;;;;;;30.70;12.98;;;;;;;24.10;100.00;99826.67;1777725;79;21557;-61
2021/08/30 01:23:43;;;;;;;24.43;13.20;;;;;;;24.06;100.00;99820.66;1752475;79;21024;-59
2021/08/30 01:26:12;;;;;;;31.27;13.38;;;;;;;24.03;100.00;99827.34;1778656;80;20984;-59
2021/08/30 01:31:19;;;;;;;24.70;12.93;;;;;;;23.95;100.00;99824.52;1733632;82;21021;-58
2021/08/30 01:41:22;;;;;;;26.75;14.28;;;;;;;23.86;100.00;99828.25;1735352;81;21612;-58
2021/08/30 01:43:49;;;;;;;30.77;12.75;;;;;;;23.84;100.00;99828.40;1775483;78;21481;-58
2021/08/30 01:46:16;;;;;;;22.30;13.98;;;;;;;23.82;100.00;99832.34;1731083;82;21596;-59
2021/08/30 01:48:50;;;;;;;23.90;12.80;;;;;;;23.75;100.00;99832.96;1705156;83;21044;-60
2021/08/30 01:54:22;;;;;;;22.27;13.10;;;;;;;23.71;100.00;99822.00;1770347;80;21039;-58
2021/08/30 01:56:55;;;;;;;24.82;12.55;;;;;;;23.72;100.00;99822.34;1735865;80;20996;-59
2021/08/30 02:02:11;;;;;;;23.65;13.35;;;;;;;23.67;100.00;99824.72;1769554;80;21779;-59
2021/08/30 02:04:38;;;;;;;24.57;13.60;;;;;;;23.64;100.00;99828.28;1733669;82;21510;-59
2021/08/30 02:07:05;;;;;;;25.90;13.05;;;;;;;23.61;100.00;99830.84;1775372;80;21111;-59
2021/08/30 02:09:32;;;;;;;20.20;12.88;;;;;;;23.59;100.00;99828.78;1767764;80;21524;-60
2021/08/30 02:11:59;;;;;;;25.75;13.78;;;;;;;23.56;100.00;99831.32;1739523;82;21079;-60
2021/08/30 02:14:32;;;;;;;30.77;15.00;;;;;;;23.54;100.00;99826.52;1778125;80;21086;-60
2021/08/30 02:17:03;;;;;;;22.82;13.43;;;;;;;23.51;100.00;99824.61;1766466;80;21079;-59
2021/08/30 02:19:46;;;;;;;24.70;13.45;;;;;;;23.46;100.00;99816.38;1772903;80;21027;-58
2021/08/30 02:22:33;;;;;;;26.57;13.10;;;;;;;23.42;100.00;99821.83;1769515;80;20949;-61
2021/08/30 02:25:05;;;;;;;29.05;14.03;;;;;;;23.40;100.00;99828.47;1752887;79;21052;-58
2021/08/30 02:27:43;;;;;;;26.37;12.63;;;;;;;23.35;100.00;99823.50;1794546;78;21509;-59
2021/08/30 02:30:37;;;;;;;29.27;13.85;;;;;;;23.31;100.00;99826.18;1793639;79;21005;-58
2021/08/30 02:33:09;;;;;;;24.63;13.55;;;;;;;23.24;100.00;99831.91;1797186;78;21584;-58
2021/08/30 02:38:14;;;;;;;27.77;14.10;;;;;;;23.13;100.00;99826.19;1792212;79;21068;-60
2021/08/30 02:40:41;;;;;;;26.05;14.23;;;;;;;23.07;100.00;99824.09;1791548;79;21106;-59
2021/08/30 02:43:09;;;;;;;21.25;14.05;;;;;;;23.04;100.00;99823.89;1786631;79;20977;-59
2021/08/30 02:45:36;;;;;;;24.52;15.13;;;;;;;23.02;100.00;99834.13;1787780;79;21051;-57
2021/08/30 02:48:04;;;;;;;32.85;14.87;;;;;;;22.99;100.00;99835.81;1773463;79;21508;-59
2021/08/30 02:50:33;;;;;;;25.12;15.40;;;;;;;22.96;100.00;99832.03;1765744;78;22783;-58
2021/08/30 02:53:03;;;;;;;25.85;15.25;;;;;;;22.95;100.00;99837.15;1792084;79;21548;-59
2021/08/30 02:55:30;;;;;;;22.95;14.83;;;;;;;22.88;100.00;99839.15;1794571;79;21560;-58
2021/08/30 02:57:59;;;;;;;32.75;16.50;;;;;;;22.86;100.00;99838.42;1794815;78;21047;-58
2021/08/30 03:03:16;;;;;;;22.35;15.72;;;;;;;22.81;100.00;99835.30;1792280;79;21002;-60
2021/08/30 03:05:53;;;;;;;24.67;14.70;;;;;;;22.74;100.00;99839.69;1760903;79;21541;-58
2021/08/30 03:08:25;;;;;;;21.15;14.63;;;;;;;22.67;100.00;99839.97;1798012;79;21009;-59
2021/08/30 03:16:16;;;;;;;29.05;12.43;;;;;;;22.38;100.00;99843.20;1784817;79;21036;-59
2021/08/30 03:18:43;;;;;;;25.60;12.13;;;;;;;22.28;100.00;99841.89;1790714;79;22312;-59
2021/08/30 03:21:25;;;;;;;17.60;11.12;;;;;;;22.22;100.00;99845.23;1797335;78;21075;-58
2021/08/30 03:23:52;;;;;;;14.58;10.23;;;;;;;22.19;100.00;99845.52;1793493;79;21060;-58
2021/08/30 03:26:22;;;;;;;15.20;9.43;;;;;;;22.15;100.00;99852.30;1784781;79;20948;-58
2021/08/30 03:28:50;;;;;;;18.62;10.05;;;;;;;22.08;100.00;99860.22;1766650;79;21570;-59
2021/08/30 03:31:17;;;;;;;15.65;10.70;;;;;;;21.97;100.00;99859.91;1770346;79;21137;-59
2021/08/30 03:33:45;;;;;;;45.03;10.88;;;;;;;21.91;100.00;99859.67;1779068;79;21104;-60
2021/08/30 03:36:17;;;;;;;46.55;10.90;;;;;;;21.88;100.00;99862.18;1776909;79;20984;-60
2021/08/30 03:38:44;;;;;;;31.07;10.88;;;;;;;21.82;100.00;99857.33;1777388;79;21551;-58
2021/08/30 03:41:11;;;;;;;48.23;13.65;;;;;;;21.78;100.00;99862.73;1769645;79;21045;-58
2021/08/30 03:43:39;;;;;;;39.05;12.98;;;;;;;21.77;100.00;99859.13;1780952;79;21128;-58
2021/08/30 03:46:17;;;;;;;43.33;13.43;;;;;;;21.80;100.00;99859.34;1740067;79;21551;-58
2021/08/30 03:48:44;;;;;;;49.48;14.30;;;;;;;21.78;100.00;99856.75;1763794;79;21561;-57
2021/08/30 03:51:11;;;;;;;42.62;14.90;;;;;;;21.77;100.00;99856.41;1776464;79;21484;-57
2021/08/30 03:53:38;;;;;;;32.25;15.95;;;;;;;21.75;100.00;99857.91;1768062;79;21378;-58
2021/08/30 03:56:05;;;;;;;27.93;16.25;;;;;;;21.78;100.00;99851.82;1768747;79;21136;-58
2021/08/30 03:58:43;;;;;;;27.07;17.12;;;;;;;21.81;100.00;99851.52;1782868;79;21069;-58
2021/08/30 04:01:28;;;;;;;24.37;16.85;;;;;;;21.82;100.00;99851.34;1777757;79;21526;-58
2021/08/30 04:03:58;;;;;;;26.75;20.02;;;;;;;21.86;100.00;99849.20;1780629;79;20972;-59
2021/08/30 04:06:25;;;;;;;31.07;20.45;;;;;;;21.89;100.00;99855.71;1780506;79;21038;-58
2021/08/30 04:08:52;;;;;;;30.52;21.48;;;;;;;21.92;100.00;99858.66;1774572;79;21141;-58
2021/08/30 04:11:21;;;;;;;35.00;20.85;;;;;;;21.97;100.00;99851.72;1765390;79;21597;-58
2021/08/30 04:13:48;;;;;;;36.90;20.65;;;;;;;22.02;100.00;99852.16;1708806;83;21045;-58
2021/08/30 04:16:17;;;;;;;34.33;22.70;;;;;;;22.08;100.00;99858.01;1778690;79;21128;-58
2021/08/30 04:18:45;;;;;;;34.53;20.27;;;;;;;22.16;100.00;99860.84;1776118;79;21530;-58
2021/08/30 04:21:13;;;;;;;36.20;22.87;;;;;;;22.22;100.00;99873.91;1774308;79;21955;-58
2021/08/30 04:26:09;;;;;;;43.02;22.25;;;;;;;22.38;100.00;99872.36;1787476;79;21033;-58
2021/08/30 04:28:36;;;;;;;34.43;22.65;;;;;;;22.48;100.00;99883.27;1792453;79;21513;-58
2021/08/30 04:31:03;;;;;;;32.88;23.32;;;;;;;22.56;100.00;99876.03;1788192;79;21074;-58
2021/08/30 04:33:30;;;;;;;45.30;23.60;;;;;;;22.66;100.00;99886.02;1716696;82;21984;-58
2021/08/30 04:35:57;;;;;;;39.00;23.85;;;;;;;22.76;100.00;99885.47;1743591;80;21073;-60
2021/08/30 04:38:24;;;;;;;36.60;24.25;;;;;;;22.87;100.00;99892.05;1746507;81;21096;-60
2021/08/30 04:41:15;;;;;;;40.85;24.10;;;;;;;23.00;100.00;99890.83;1751215;80;21046;-60
2021/08/30 04:43:44;;;;;;;32.17;23.73;;;;;;;23.15;100.00;99894.73;1714641;82;21128;-58
2021/08/30 04:46:20;;;;;;;35.45;23.45;;;;;;;23.36;100.00;99893.58;1756465;80;20993;-58
2021/08/30 04:48:49;;;;;;;35.88;22.98;;;;;;;23.53;100.00;99895.93;1730048;81;21039;-60
2021/08/30 04:51:19;;;;;;;40.60;24.37;;;;;;;23.73;100.00;99899.84;1744623;81;21071;-58
2021/08/30 04:53:57;;;;;;;50.88;25.15;;;;;;;23.85;99.09;99902.63;1741883;81;21115;-58
2021/08/30 04:56:24;;;;;;;42.03;24.82;;;;;;;24.01;97.91;99903.77;1718721;80;21103;-59
2021/08/30 04:58:51;;;;;;;37.78;24.43;;;;;;;24.16;96.23;99905.41;1725692;82;21538;-60
2021/08/30 05:01:25;;;;;;;44.50;25.27;;;;;;;24.28;94.79;99912.33;1727522;82;21147;-60
2021/08/30 05:04:06;;;;;;;34.50;23.20;;;;;;;24.41;93.77;99906.89;1736286;82;21220;-60
2021/08/30 05:14:27;;;;;;;36.93;21.93;;;;;;;24.97;89.77;99907.78;1782021;79;20221;-58
2021/08/30 05:16:54;;;;;;;34.40;21.62;;;;;;;25.13;88.88;99914.67;1785881;79;21037;-58
2021/08/30 05:19:23;;;;;;;28.83;21.48;;;;;;;25.28;87.47;99918.97;1779818;79;21084;-60
2021/08/30 05:21:50;;;;;;;36.30;21.93;;;;;;;25.42;86.23;99917.42;1787231;79;22112;-58
2021/08/30 05:24:17;;;;;;;33.75;22.25;;;;;;;25.56;84.99;99924.67;1775373;79;21226;-58
2021/08/30 05:26:47;;;;;;;37.00;21.30;;;;;;;25.65;83.73;99938.72;1775395;79;21508;-58
2021/08/30 05:29:14;;;;;;;34.90;22.13;;;;;;;25.76;82.65;99929.80;1772361;80;21036;-59
2021/08/30 05:31:43;;;;;;;34.80;22.22;;;;;;;25.87;81.22;99923.94;1768064;80;21173;-58
2021/08/30 05:34:10;;;;;;;29.80;22.27;;;;;;;25.94;79.84;99921.36;1779242;79;21060;-58
2021/08/30 05:36:37;;;;;;;32.67;21.55;;;;;;;26.02;78.46;99929.06;1779501;79;20972;-59
2021/08/30 05:39:24;;;;;;;29.82;22.37;;;;;;;26.18;77.58;99930.06;1725002;81;21137;-59
2021/08/30 05:41:51;;;;;;;27.42;21.23;;;;;;;26.55;76.35;99934.06;1734028;81;21043;-59
2021/08/30 05:49:34;;;;;;;32.50;20.68;;;;;;;27.57;71.77;99926.74;1736254;80;21505;-60
2021/08/30 05:52:01;;;;;;;32.17;20.80;;;;;;;27.85;70.08;99925.29;1727054;81;21036;-60
2021/08/30 05:54:29;;;;;;;28.77;20.23;;;;;;;27.97;69.21;99929.31;1739525;81;21089;-59
2021/08/30 05:57:02;;;;;;;30.35;19.95;;;;;;;27.96;68.58;99926.19;1737329;81;21055;-59
2021/08/30 05:59:46;;;;;;;31.00;20.35;;;;;;;27.87;68.38;99934.22;1660602;85;21528;-60
2021/08/30 06:09:57;;;;;;;28.65;19.12;;;;;;;27.61;69.44;99941.00;1730616;81;21101;-60
2021/08/30 06:12:24;;;;;;;29.85;17.60;;;;;;;27.66;68.85;99939.92;1692182;83;21881;-60
2021/08/30 06:14:52;;;;;;;29.10;18.60;;;;;;;27.62;68.97;99944.09;1678782;84;21982;-60
2021/08/30 06:17:19;;;;;;;32.45;19.60;;;;;;;27.58;69.03;99945.51;1694861;83;21058;-60
2021/08/30 06:19:47;;;;;;;35.50;19.27;;;;;;;27.54;69.20;99943.63;1727161;81;21783;-60
2021/08/30 06:22:14;;;;;;;35.85;19.60;;;;;;;27.52;69.33;99942.09;1725870;81;20991;-60
2021/08/30 06:24:46;;;;;;;28.00;18.37;;;;;;;27.55;69.10;99948.63;1728192;81;21535;-60
2021/08/30 06:27:10;;;;;;;29.60;19.02;;;;;;;27.55;69.15;99952.77;1694494;83;21228;-60
2021/08/30 06:30:09;;;;;;;25.55;18.20;;;;;;;27.57;68.71;99957.56;1731095;81;21721;-61
2021/08/30 06:32:41;;;;;;;27.82;17.62;;;;;;;27.62;68.32;99952.85;1693928;83;21083;-59
2021/08/30 06:35:09;;;;;;;27.95;18.77;;;;;;;27.65;67.79;99953.34;1726936;81;21112;-59
2021/08/30 06:40:14;;;;;;;26.50;18.48;;;;;;;27.76;67.78;99958.94;1730614;82;21529;-59
2021/08/30 06:48:39;;;;;;;28.90;19.40;;;;;;;27.88;67.23;99968.98;1732906;81;21050;-59
2021/08/30 06:51:21;;;;;;;31.80;18.98;;;;;;;27.89;66.92;99973.44;1726377;81;21098;-58
2021/08/30 07:00:43;;;;;;;33.60;18.82;;;;;;;28.02;66.78;99975.05;1716836;82;21078;-60
2021/08/30 07:03:10;;;;;;;29.42;19.52;;;;;;;28.08;66.45;99972.06;1717841;83;21065;-60
2021/08/30 07:05:37;;;;;;;29.05;18.50;;;;;;;28.14;66.32;99969.92;1721233;82;21449;-58
2021/08/30 07:08:05;;;;;;;31.62;19.02;;;;;;;28.21;66.12;99975.58;1714397;81;21825;-60
2021/08/30 07:10:33;;;;;;;29.45;18.77;;;;;;;28.25;65.97;99974.16;1717607;83;21091;-61
2021/08/30 07:13:00;;;;;;;28.05;19.27;;;;;;;28.33;65.91;99969.58;1716738;81;21464;-61
2021/08/30 07:15:29;;;;;;;25.88;17.65;;;;;;;28.43;65.65;99974.30;1714004;83;21067;-61
2021/08/30 07:17:56;;;;;;;28.95;18.00;;;;;;;28.52;65.43;99977.28;1679529;84;21020;-62
2021/08/30 07:20:23;;;;;;;26.93;17.15;;;;;;;28.58;64.81;99977.89;1715568;82;21539;-62
2021/08/30 07:22:50;;;;;;;24.75;16.02;;;;;;;28.66;64.45;99977.47;1718131;81;21087;-62
2021/08/30 07:25:16;;;;;;;24.30;17.07;;;;;;;28.72;64.18;99980.84;1719825;81;21007;-62
2021/08/30 07:27:43;;;;;;;23.25;16.82;;;;;;;28.75;64.06;99987.34;1719927;81;21092;-63
2021/08/30 07:30:12;;;;;;;29.02;15.95;;;;;;;28.82;64.17;99988.84;1720348;81;21634;-62
2021/08/30 07:32:39;;;;;;;24.80;15.68;;;;;;;28.90;63.98;99982.37;1676482;83;21537;-62
2021/08/30 07:35:07;;;;;;;25.15;16.67;;;;;;;29.01;63.31;99981.85;1713971;83;20993;-63
2021/08/30 07:37:34;;;;;;;22.52;16.07;;;;;;;29.03;62.57;99982.51;1716537;83;21586;-63
2021/08/30 07:40:01;;;;;;;25.82;16.35;;;;;;;28.98;62.70;99980.35;1712903;81;21616;-60
2021/08/30 07:42:28;;;;;;;25.52;18.57;;;;;;;29.03;62.85;99981.13;1715935;81;21067;-60
2021/08/30 07:44:55;;;;;;;28.87;18.70;;;;;;;29.10;62.75;99988.11;1719258;81;21134;-60
2021/08/30 07:47:22;;;;;;;30.43;18.32;;;;;;;29.12;62.80;99991.53;1721919;81;21027;-59
2021/08/30 07:49:49;;;;;;;30.82;17.75;;;;;;;29.14;62.48;99984.77;1717821;81;21127;-58
2021/08/30 07:52:20;;;;;;;28.98;16.40;;;;;;;29.19;62.08;99980.57;1719172;81;22451;-60
2021/08/30 07:54:46;;;;;;;25.37;16.90;;;;;;;29.24;61.75;99987.73;1717113;81;21165;-60
2021/08/30 07:57:13;;;;;;;23.27;16.27;;;;;;;29.24;61.57;99983.59;1683630;83;21069;-60
2021/08/30 07:59:41;;;;;;;28.67;16.90;;;;;;;29.24;61.63;99981.70;1717534;81;21099;-62
2021/08/30 08:02:08;;;;;;;27.10;17.32;;;;;;;29.24;61.20;99989.11;1720178;81;21298;-62
2021/08/30 08:04:35;;;;;;;25.48;16.65;;;;;;;29.17;61.44;99995.93;1717519;81;21038;-62
2021/08/30 08:07:03;;;;;;;23.80;14.47;;;;;;;29.19;61.60;99997.12;1716461;83;21146;-61
2021/08/30 08:09:31;;;;;;;22.52;16.35;;;;;;;29.21;60.88;99992.27;1679399;83;21151;-61
2021/08/30 08:11:58;;;;;;;24.32;15.68;;;;;;;29.15;61.12;100003.55;1688008;83;21584;-59
2021/08/30 08:14:25;;;;;;;24.60;15.83;;;;;;;29.16;60.77;99999.23;1670176;84;21127;-58
2021/08/30 08:16:52;;;;;;;28.25;14.93;;;;;;;29.19;60.46;99995.75;1669319;84;21139;-59
2021/08/30 08:19:19;;;;;;;24.43;15.35;;;;;;;29.21;60.57;100000.55;1671748;84;21099;-59
2021/08/30 08:21:47;;;;;;;21.93;15.35;;;;;;;29.26;60.33;100000.81;1668576;84;21505;-59
2021/08/30 08:24:14;;;;;;;28.40;15.83;;;;;;;29.31;60.35;100001.10;1672458;84;21037;-60
2021/08/30 08:26:42;;;;;;;21.95;14.45;;;;;;;29.37;60.13;99997.55;1664963;84;21122;-60
2021/08/30 08:29:12;;;;;;;24.20;15.20;;;;;;;29.41;59.84;99996.13;1664405;84;21051;-60
2021/08/30 08:31:39;;;;;;;24.55;15.50;;;;;;;29.44;59.77;99995.73;1664573;84;21732;-59
2021/08/30 08:34:06;;;;;;;21.87;16.15;;;;;;;29.44;59.79;100001.25;1669517;84;21146;-60
2021/08/30 08:36:33;;;;;;;26.20;15.32;;;;;;;29.45;59.71;100002.96;1664282;84;21048;-62
2021/08/30 08:39:01;;;;;;;21.68;14.60;;;;;;;29.43;59.67;100004.23;1663546;84;21519;-60
2021/08/30 08:41:28;;;;;;;22.35;15.05;;;;;;;29.43;60.05;100006.45;1666298;84;21053;-60
2021/08/30 08:43:56;;;;;;;22.22;15.13;;;;;;;29.49;59.91;100006.70;1665485;84;21036;-61
2021/08/30 08:46:23;;;;;;;35.95;17.20;;;;;;;29.55;59.87;99997.66;1663814;84;21454;-59
2021/08/30 08:48:50;;;;;;;26.52;14.28;;;;;;;29.60;59.65;99992.39;1663666;84;21075;-61
2021/08/30 08:51:17;;;;;;;20.70;15.00;;;;;;;29.64;59.71;99989.55;1665124;84;21571;-61
2021/08/30 08:53:45;;;;;;;26.25;15.60;;;;;;;29.73;59.25;99993.91;1666513;85;21032;-60
2021/08/30 08:56:16;;;;;;;21.05;14.58;;;;;;;29.81;58.70;99989.28;1664415;84;21080;-61
2021/08/30 08:58:43;;;;;;;24.52;14.40;;;;;;;29.84;58.54;99990.27;1664222;84;21191;-61
2021/08/30 09:01:11;;;;;;;26.07;14.58;;;;;;;29.80;58.21;99995.86;1635232;84;21548;-61
2021/08/30 09:03:45;;;;;;;23.12;14.90;;;;;;;29.79;58.06;99999.69;1631778;86;20949;-60
2021/08/30 09:06:13;;;;;;;24.72;14.65;;;;;;;29.83;57.99;99990.77;1631293;86;21257;-59
2021/08/30 09:08:42;;;;;;;26.50;15.90;;;;;;;29.89;57.95;100000.18;1587595;87;21133;-60
2021/08/30 09:11:24;;;;;;;23.90;14.30;;;;;;;29.89;57.41;99991.89;1636740;87;21188;-61
2021/08/30 09:13:54;;;;;;;23.75;15.60;;;;;;;29.86;57.83;99989.53;1631758;86;21092;-61
2021/08/30 09:16:23;;;;;;;22.95;14.45;;;;;;;29.99;57.62;99996.56;1628175;86;21187;-61
2021/08/30 09:19:03;;;;;;;17.52;12.47;;;;;;;30.10;57.11;99998.47;1632096;86;21415;-61
2021/08/30 09:21:30;;;;;;;23.73;12.80;;;;;;;30.15;55.54;100006.48;1628516;87;20989;-63
2021/08/30 09:24:12;;;;;;;24.75;14.78;;;;;;;30.08;55.85;100003.34;1633846;86;21588;-63
2021/08/30 09:26:52;;;;;;;24.35;14.87;;;;;;;30.03;56.15;100005.31;1630096;86;21549;-62
2021/08/30 09:29:22;;;;;;;20.25;14.20;;;;;;;29.96;56.23;100001.11;1629951;87;21463;-64
2021/08/30 09:32:10;;;;;;;23.90;15.48;;;;;;;29.90;56.40;100010.17;1651458;85;21431;-61
2021/08/30 09:34:44;;;;;;;19.52;14.13;;;;;;;29.84;56.82;100000.80;1652344;85;22144;-60
2021/08/30 09:37:19;;;;;;;21.45;14.25;;;;;;;29.85;56.86;100000.26;1657283;85;21143;-62
2021/08/30 09:39:59;;;;;;;20.88;13.25;;;;;;;29.90;56.36;99993.59;1648560;85;21069;-64
2021/08/30 09:42:27;;;;;;;25.45;13.60;;;;;;;29.98;56.03;100000.37;1623605;86;21119;-65
2021/08/30 09:44:55;;;;;;;21.20;13.65;;;;;;;30.10;55.71;100002.09;1622625;86;21080;-62
2021/08/30 09:47:23;;;;;;;20.57;13.80;;;;;;;30.22;55.46;100007.92;1636374;86;21170;-63
2021/08/30 09:49:52;;;;;;;27.40;13.18;;;;;;;30.34;54.98;100007.34;1632699;87;21119;-63
2021/08/30 09:52:23;;;;;;;47.93;38.42;;;;;;;30.36;54.91;100008.00;1653945;85;21039;-63
2021/08/30 09:54:53;;;;;;;20.48;13.10;;;;;;;30.35;54.95;100007.16;1652049;85;21056;-63
2021/08/30 09:57:20;;;;;;;20.65;14.20;;;;;;;30.41;54.97;100013.80;1652203;85;21047;-64
2021/08/30 09:59:47;;;;;;;20.05;13.08;;;;;;;30.53;54.84;100009.39;1654550;85;21140;-64
2021/08/30 10:02:17;;;;;;;17.95;13.43;;;;;;;30.66;54.50;100020.25;1671456;83;22373;-65
2021/08/30 10:04:44;;;;;;;20.48;14.10;;;;;;;30.70;54.07;100016.01;1704817;82;21540;-65
2021/08/30 10:07:18;;;;;;;20.50;13.62;;;;;;;30.78;53.35;100019.97;1669821;84;21565;-64
2021/08/30 10:09:47;;;;;;;24.90;13.03;;;;;;;30.83;52.83;100020.20;1712559;81;21079;-64
2021/08/30 10:12:14;;;;;;;18.05;12.63;;;;;;;30.80;52.40;100017.85;1705378;83;21048;-65
2021/08/30 10:14:43;;;;;;;28.42;13.22;;;;;;;30.77;52.56;100016.89;1707703;82;21502;-63
2021/08/30 10:17:11;;;;;;;22.07;14.98;;;;;;;30.77;52.30;100016.89;1704921;82;21056;-62
2021/08/30 10:19:40;;;;;;;20.57;14.68;;;;;;;30.78;52.11;100015.83;1668718;85;21156;-61
2021/08/30 10:22:19;;;;;;;19.57;13.58;;;;;;;30.82;51.72;100022.65;1698955;83;21852;-61
2021/08/30 10:24:49;;;;;;;17.73;13.68;;;;;;;30.81;51.63;100025.09;1704496;83;21103;-63
2021/08/30 10:27:33;;;;;;;21.07;13.48;;;;;;;30.74;51.29;100025.59;1703814;82;23254;-61
2021/08/30 10:30:18;;;;;;;15.25;13.28;;;;;;;30.59;51.38;100021.01;1666322;84;21073;-62
2021/08/30 10:32:44;;;;;;;23.10;14.30;;;;;;;30.43;51.72;100018.59;1667444;84;21077;-62
2021/08/30 10:35:18;;;;;;;18.90;13.62;;;;;;;30.36;51.60;100027.34;1670899;83;22573;-61
2021/08/30 10:38:00;;;;;;;17.05;12.73;;;;;;;30.29;51.51;100019.87;1671375;83;21036;-62
2021/08/30 10:40:30;;;;;;;21.30;13.70;;;;;;;30.20;51.19;100022.98;1672506;84;21210;-63
2021/08/30 10:43:14;;;;;;;25.37;14.03;;;;;;;30.10;51.29;100020.58;1709452;82;21098;-64
2021/08/30 10:45:45;;;;;;;24.23;13.95;;;;;;;30.04;52.03;100018.62;1662890;84;21585;-62
2021/08/30 10:48:18;;;;;;;25.40;13.95;;;;;;;30.04;52.24;100029.12;1661695;84;21390;-63
2021/08/30 10:50:48;;;;;;;23.52;13.25;;;;;;;30.08;51.25;100018.55;1670642;83;21115;-61
2021/08/30 10:53:23;;;;;;;25.72;13.85;;;;;;;30.12;51.14;100029.52;1671167;83;21158;-64
2021/08/30 10:55:56;;;;;;;25.72;13.72;;;;;;;30.11;50.79;100018.14;1674639;83;21120;-64
2021/08/30 10:58:26;;;;;;;17.67;13.05;;;;;;;30.08;50.89;100008.36;1704431;83;21040;-64
2021/08/30 11:00:55;;;;;;;16.67;12.37;;;;;;;30.09;50.72;100015.59;1704619;82;21082;-64
2021/08/30 11:03:34;;;;;;;22.17;13.03;;;;;;;30.17;50.70;100015.94;1700797;83;21115;-63
2021/08/30 11:06:09;;;;;;;21.30;13.30;;;;;;;30.22;50.64;100012.07;1704809;82;21162;-63
2021/08/30 11:08:42;;;;;;;22.77;13.48;;;;;;;30.27;50.54;100013.69;1682694;83;21067;-63
2021/08/30 11:11:18;;;;;;;18.67;12.50;;;;;;;30.27;50.48;100008.16;1669503;84;21115;-64
2021/08/30 11:14:01;;;;;;;24.57;13.28;;;;;;;30.27;50.22;100005.91;1659576;84;21072;-64
2021/08/30 11:16:31;;;;;;;24.15;13.20;;;;;;;30.19;50.06;100008.84;1663461;85;21006;-65
2021/08/30 11:19:04;;;;;;;18.65;13.13;;;;;;;30.13;50.31;100009.98;1653827;86;21807;-62
2021/08/30 11:21:37;;;;;;;24.55;14.83;;;;;;;30.08;50.75;100006.98;1656972;86;21068;-64
2021/08/30 11:24:06;;;;;;;26.27;12.95;;;;;;;30.08;50.86;100001.96;1657102;84;21068;-62
2021/08/30 11:26:35;;;;;;;19.25;12.63;;;;;;;30.10;50.70;99998.47;1655650;84;21040;-64
2021/08/30 11:29:07;;;;;;;22.82;12.68;;;;;;;30.14;50.40;100010.82;1651121;84;21096;-64
2021/08/30 11:31:39;;;;;;;18.55;12.55;;;;;;;30.11;50.70;100000.17;1654094;85;21178;-64
2021/08/30 11:34:06;;;;;;;18.42;12.73;;;;;;;30.14;50.28;100003.91;1652643;85;21102;-63
2021/08/30 11:36:47;;;;;;;19.30;13.53;;;;;;;30.19;50.40;100000.55;1668668;84;21087;-62
2021/08/30 11:39:18;;;;;;;17.75;13.15;;;;;;;30.22;50.82;100005.16;1639675;86;21076;-61
2021/08/30 11:41:53;;;;;;;23.52;14.03;;;;;;;30.28;50.39;100009.87;1643035;85;21107;-60
2021/08/30 11:44:20;;;;;;;26.17;13.65;;;;;;;30.30;50.50;100010.52;1617891;87;21955;-61
2021/08/30 11:46:59;;;;;;;22.25;13.70;;;;;;;30.28;50.46;100008.49;1659675;84;21138;-61
2021/08/30 11:49:29;;;;;;;20.32;13.72;;;;;;;30.27;50.58;100010.06;1640691;85;21134;-62
2021/08/30 11:52:01;;;;;;;18.05;12.78;;;;;;;30.29;49.97;100017.11;1661618;84;21708;-60
2021/08/30 11:54:36;;;;;;;25.02;12.90;;;;;;;30.27;50.20;100016.45;1677298;85;21364;-62
2021/08/30 11:57:12;;;;;;;21.52;12.90;;;;;;;30.25;50.33;100007.52;1672763;84;21752;-62
2021/08/30 11:59:41;;;;;;;17.98;12.07;;;;;;;30.28;49.91;100010.39;1656201;84;20922;-61
2021/08/30 12:02:10;;;;;;;24.10;12.60;;;;;;;30.29;49.06;100017.11;1644237;84;21473;-62
2021/08/30 12:04:38;;;;;;;21.05;12.18;;;;;;;30.27;49.34;100015.08;1648476;86;21486;-62
2021/08/30 12:07:08;;;;;;;19.40;13.15;;;;;;;30.28;49.80;100012.64;1647788;86;21047;-62
2021/08/30 12:09:47;;;;;;;20.35;12.65;;;;;;;30.28;50.08;100012.64;1645413;86;21067;-61
2021/08/30 12:12:21;;;;;;;16.35;12.10;;;;;;;30.35;50.04;100010.44;1650066;86;21044;-60
2021/08/30 12:15:02;;;;;;;19.75;12.60;;;;;;;30.41;49.78;100013.80;1649127;86;21545;-62
2021/08/30 12:17:33;;;;;;;18.35;12.20;;;;;;;30.47;49.47;100012.97;1653915;86;21410;-60
2021/08/30 12:20:07;;;;;;;18.35;11.75;;;;;;;30.52;49.95;100013.21;1648812;86;21055;-62
2021/08/30 12:22:37;;;;;;;18.75;11.25;;;;;;;30.60;49.69;100010.81;1645551;86;21139;-60
2021/08/30 12:25:09;;;;;;;20.65;11.20;;;;;;;30.68;48.80;100014.81;1644963;85;21154;-62
2021/08/30 12:27:41;;;;;;;15.88;11.85;;;;;;;30.70;48.44;100020.16;1646592;86;21457;-63
2021/08/30 12:30:31;;;;;;;15.18;11.75;;;;;;;30.67;48.96;100010.34;1651419;86;21449;-62
2021/08/30 12:33:07;;;;;;;23.22;11.15;;;;;;;30.71;48.96;100014.95;1673278;85;21061;-61
2021/08/30 12:35:45;;;;;;;21.77;11.30;;;;;;;30.70;48.90;100016.01;1664040;84;21097;-62
2021/08/30 12:38:21;;;;;;;20.05;11.80;;;;;;;30.75;49.05;100020.39;1636203;87;21552;-61
2021/08/30 12:40:55;;;;;;;19.32;10.93;;;;;;;30.83;49.12;100011.91;1642906;86;21057;-64
2021/08/30 12:43:22;;;;;;;17.80;11.65;;;;;;;30.87;48.98;100007.69;1635918;86;21465;-62
2021/08/30 12:45:49;;;;;;;20.77;11.40;;;;;;;30.93;48.56;100013.45;1632291;87;21657;-62
2021/08/30 12:48:21;;;;;;;17.77;10.72;;;;;;;30.96;48.55;100008.38;1663983;85;21518;-63
2021/08/30 12:50:45;;;;;;;18.85;11.70;;;;;;;31.06;49.10;100013.52;1657427;86;21039;-60
2021/08/30 12:53:12;;;;;;;18.80;11.38;;;;;;;31.15;49.44;100010.88;1666675;84;21103;-61